sensor_id;sensor_type;location;lat;lon;timestamp;temperature;humidity
20081;DHT22;10200;49.232;9.222;2023-02-16T00:01:57;1.30;99.90
20081;DHT22;10200;49.232;9.222;2023-02-16T00:04:28;1.30;99.90
20081;DHT22;10200;49.232;9.222;2023-02-16T00:06:55;1.30;99.90
20081;DHT22;10200;49.232;9.222;2023-02-16T00:09:22;1.20;99.90
20081;DHT22;10200;49.232;9.222;2023-02-16T00:11:49;1.20;99.90
20081;DHT22;10200;49.232;9.222;2023-02-16T00:14:35;1.10;99.90
20081;DHT22;10200;49.232;9.222;2023-02-16T00:17:01;1.00;99.90
20081;DHT22;10200;49.232;9.222;2023-02-16T00:19:30;1.00;99.90
20081;DHT22;10200;49.232;9.222;2023-02-16T00:21:58;1.10;99.90
20081;DHT22;10200;49.232;9.222;2023-02-16T00:24:26;1.10;99.90
20081;DHT22;10200;49.232;9.222;2023-02-16T00:26:52;1.10;99.90
20081;DHT22;10200;49.232;9.222;2023-02-16T00:29:31;1.10;99.90
20081;DHT22;10200;49.232;9.222;2023-02-16T00:31:59;1.10;99.90
20081;DHT22;10200;49.232;9.222;2023-02-16T00:36:53;1.10;99.90
20081;DHT22;10200;49.232;9.222;2023-02-16T00:39:19;1.10;99.90
20081;DHT22;10200;49.232;9.222;2023-02-16T00:41:45;1.00;99.90
20081;DHT22;10200;49.232;9.222;2023-02-16T00:44:42;1.10;99.90
20081;DHT22;10200;49.232;9.222;2023-02-16T00:49:44;1.00;99.90
20081;DHT22;10200;49.232;9.222;2023-02-16T00:52:23;1.00;99.90
20081;DHT22;10200;49.232;9.222;2023-02-16T00:54:51;1.00;99.90
20081;DHT22;10200;49.232;9.222;2023-02-16T00:57:17;1.00;99.90
20081;DHT22;10200;49.232;9.222;2023-02-16T00:59:44;1.00;99.90
20081;DHT22;10200;49.232;9.222;2023-02-16T01:02:11;1.00;99.90
20081;DHT22;10200;49.232;9.222;2023-02-16T01:04:36;1.00;99.90
20081;DHT22;10200;49.232;9.222;2023-02-16T01:07:09;0.90;99.90
20081;DHT22;10200;49.232;9.222;2023-02-16T01:09:54;0.90;99.90
20081;DHT22;10200;49.232;9.222;2023-02-16T01:12:38;0.90;99.90
20081;DHT22;10200;49.232;9.222;2023-02-16T01:15:05;0.90;99.90
20081;DHT22;10200;49.232;9.222;2023-02-16T01:17:34;0.90;99.90
20081;DHT22;10200;49.232;9.222;2023-02-16T01:19:59;0.80;99.90
20081;DHT22;10200;49.232;9.222;2023-02-16T01:22:25;0.80;99.90
20081;DHT22;10200;49.232;9.222;2023-02-16T01:24:51;0.80;99.90
20081;DHT22;10200;49.232;9.222;2023-02-16T01:27:16;0.90;99.90
20081;DHT22;10200;49.232;9.222;2023-02-16T01:29:42;0.90;99.90
20081;DHT22;10200;49.232;9.222;2023-02-16T01:32:11;0.80;99.90
20081;DHT22;10200;49.232;9.222;2023-02-16T01:34:36;0.80;99.90
20081;DHT22;10200;49.232;9.222;2023-02-16T01:37:02;0.80;99.90
20081;DHT22;10200;49.232;9.222;2023-02-16T01:39:28;0.80;99.90
20081;DHT22;10200;49.232;9.222;2023-02-16T01:42:09;0.80;99.90
20081;DHT22;10200;49.232;9.222;2023-02-16T01:44:37;0.80;99.90
20081;DHT22;10200;49.232;9.222;2023-02-16T01:49:48;0.70;99.90
20081;DHT22;10200;49.232;9.222;2023-02-16T02:03:33;0.50;99.90
20081;DHT22;10200;49.232;9.222;2023-02-16T02:06:26;0.50;99.90
20081;DHT22;10200;49.232;9.222;2023-02-16T02:11:41;0.50;99.90
20081;DHT22;10200;49.232;9.222;2023-02-16T02:14:21;0.60;99.90
20081;DHT22;10200;49.232;9.222;2023-02-16T02:17:00;0.50;99.90
20081;DHT22;10200;49.232;9.222;2023-02-16T02:19:27;0.50;99.90
20081;DHT22;10200;49.232;9.222;2023-02-16T02:22:36;0.40;99.90
20081;DHT22;10200;49.232;9.222;2023-02-16T02:25:53;0.40;99.90
20081;DHT22;10200;49.232;9.222;2023-02-16T02:31:40;0.40;99.90
20081;DHT22;10200;49.232;9.222;2023-02-16T02:37:38;0.50;99.90
20081;DHT22;10200;49.232;9.222;2023-02-16T02:43:09;0.50;99.90
20081;DHT22;10200;49.232;9.222;2023-02-16T02:45:46;0.50;99.90
20081;DHT22;10200;49.232;9.222;2023-02-16T02:48:12;0.40;99.90
20081;DHT22;10200;49.232;9.222;2023-02-16T02:50:45;0.40;99.90
20081;DHT22;10200;49.232;9.222;2023-02-16T02:53:31;0.40;99.90
20081;DHT22;10200;49.232;9.222;2023-02-16T02:55:58;0.40;99.90
20081;DHT22;10200;49.232;9.222;2023-02-16T02:58:46;0.40;99.90
20081;DHT22;10200;49.232;9.222;2023-02-16T03:01:48;0.40;99.90
20081;DHT22;10200;49.232;9.222;2023-02-16T03:04:17;0.30;99.90
20081;DHT22;10200;49.232;9.222;2023-02-16T03:06:47;0.30;99.90
20081;DHT22;10200;49.232;9.222;2023-02-16T03:09:14;0.30;99.90
20081;DHT22;10200;49.232;9.222;2023-02-16T03:11:40;0.30;99.90
20081;DHT22;10200;49.232;9.222;2023-02-16T03:14:32;0.30;99.90
20081;DHT22;10200;49.232;9.222;2023-02-16T03:17:05;0.30;99.90
20081;DHT22;10200;49.232;9.222;2023-02-16T03:19:50;0.30;99.90
20081;DHT22;10200;49.232;9.222;2023-02-16T03:22:36;0.30;99.90
20081;DHT22;10200;49.232;9.222;2023-02-16T03:25:23;0.30;99.90
20081;DHT22;10200;49.232;9.222;2023-02-16T03:28:10;0.40;99.90
20081;DHT22;10200;49.232;9.222;2023-02-16T03:30:57;0.30;99.90
20081;DHT22;10200;49.232;9.222;2023-02-16T03:33:24;0.30;99.90
20081;DHT22;10200;49.232;9.222;2023-02-16T03:35:50;0.30;99.90
20081;DHT22;10200;49.232;9.222;2023-02-16T03:38:17;0.30;99.90
20081;DHT22;10200;49.232;9.222;2023-02-16T03:40:44;0.30;99.90
20081;DHT22;10200;49.232;9.222;2023-02-16T03:43:11;0.30;99.90
20081;DHT22;10200;49.232;9.222;2023-02-16T03:45:39;0.30;99.90
20081;DHT22;10200;49.232;9.222;2023-02-16T03:48:06;0.30;99.90
20081;DHT22;10200;49.232;9.222;2023-02-16T03:50:31;0.20;99.90
20081;DHT22;10200;49.232;9.222;2023-02-16T03:52:57;0.20;99.90
20081;DHT22;10200;49.232;9.222;2023-02-16T03:55:36;0.20;99.90
20081;DHT22;10200;49.232;9.222;2023-02-16T03:58:03;0.20;99.90
20081;DHT22;10200;49.232;9.222;2023-02-16T04:00:29;0.20;99.90
20081;DHT22;10200;49.232;9.222;2023-02-16T04:02:55;0.20;99.90
20081;DHT22;10200;49.232;9.222;2023-02-16T04:05:20;0.20;99.90
20081;DHT22;10200;49.232;9.222;2023-02-16T04:07:46;0.20;99.90
20081;DHT22;10200;49.232;9.222;2023-02-16T04:10:11;0.20;99.90
20081;DHT22;10200;49.232;9.222;2023-02-16T04:12:37;0.20;99.90
20081;DHT22;10200;49.232;9.222;2023-02-16T04:15:14;0.10;99.90
20081;DHT22;10200;49.232;9.222;2023-02-16T04:17:40;0.10;99.90
20081;DHT22;10200;49.232;9.222;2023-02-16T04:20:09;0.20;99.90
20081;DHT22;10200;49.232;9.222;2023-02-16T04:22:34;0.20;99.90
20081;DHT22;10200;49.232;9.222;2023-02-16T04:25:00;0.10;99.90
20081;DHT22;10200;49.232;9.222;2023-02-16T04:27:27;0.10;99.90
20081;DHT22;10200;49.232;9.222;2023-02-16T04:29:52;0.10;99.90
20081;DHT22;10200;49.232;9.222;2023-02-16T04:32:18;0.10;99.90
20081;DHT22;10200;49.232;9.222;2023-02-16T04:34:43;0.10;99.90
20081;DHT22;10200;49.232;9.222;2023-02-16T04:37:09;0.10;99.90
20081;DHT22;10200;49.232;9.222;2023-02-16T04:39:35;0.10;99.90
20081;DHT22;10200;49.232;9.222;2023-02-16T04:42:00;0.10;99.90
20081;DHT22;10200;49.232;9.222;2023-02-16T04:44:26;0.00;99.90
20081;DHT22;10200;49.232;9.222;2023-02-16T04:46:52;0.00;99.90
20081;DHT22;10200;49.232;9.222;2023-02-16T04:49:17;0.00;99.90
20081;DHT22;10200;49.232;9.222;2023-02-16T04:51:43;0.00;99.90
20081;DHT22;10200;49.232;9.222;2023-02-16T04:54:09;0.00;99.90
20081;DHT22;10200;49.232;9.222;2023-02-16T04:56:34;0.00;99.90
20081;DHT22;10200;49.232;9.222;2023-02-16T04:59:00;-0.10;99.90
20081;DHT22;10200;49.232;9.222;2023-02-16T05:01:26;-0.10;99.90
20081;DHT22;10200;49.232;9.222;2023-02-16T05:03:52;-0.10;99.90
20081;DHT22;10200;49.232;9.222;2023-02-16T05:06:18;-0.10;99.90
20081;DHT22;10200;49.232;9.222;2023-02-16T05:08:44;0.00;99.90
20081;DHT22;10200;49.232;9.222;2023-02-16T05:11:10;0.00;99.90
20081;DHT22;10200;49.232;9.222;2023-02-16T05:13:58;-0.10;99.90
20081;DHT22;10200;49.232;9.222;2023-02-16T05:16:44;-0.10;99.90
20081;DHT22;10200;49.232;9.222;2023-02-16T05:19:10;-0.10;99.90
20081;DHT22;10200;49.232;9.222;2023-02-16T05:21:36;-0.10;99.90
20081;DHT22;10200;49.232;9.222;2023-02-16T05:24:05;-0.20;99.90
20081;DHT22;10200;49.232;9.222;2023-02-16T05:26:32;-0.20;99.90
20081;DHT22;10200;49.232;9.222;2023-02-16T05:28:58;-0.20;99.90
20081;DHT22;10200;49.232;9.222;2023-02-16T05:31:25;-0.30;99.90
20081;DHT22;10200;49.232;9.222;2023-02-16T05:33:51;-0.30;99.90
20081;DHT22;10200;49.232;9.222;2023-02-16T05:36:17;-0.30;99.90
20081;DHT22;10200;49.232;9.222;2023-02-16T05:38:43;-0.30;99.90
20081;DHT22;10200;49.232;9.222;2023-02-16T05:41:09;-0.30;99.90
20081;DHT22;10200;49.232;9.222;2023-02-16T05:43:35;-0.30;99.90
20081;DHT22;10200;49.232;9.222;2023-02-16T05:46:06;-0.30;99.90
20081;DHT22;10200;49.232;9.222;2023-02-16T05:48:32;-0.30;99.90
20081;DHT22;10200;49.232;9.222;2023-02-16T05:50:58;-0.30;99.90
20081;DHT22;10200;49.232;9.222;2023-02-16T05:53:23;-0.30;99.90
20081;DHT22;10200;49.232;9.222;2023-02-16T05:55:49;-0.40;99.90
20081;DHT22;10200;49.232;9.222;2023-02-16T05:58:14;-0.40;99.90
20081;DHT22;10200;49.232;9.222;2023-02-16T06:00:40;-0.40;99.90
20081;DHT22;10200;49.232;9.222;2023-02-16T06:03:05;-0.30;99.90
20081;DHT22;10200;49.232;9.222;2023-02-16T06:05:31;-0.40;99.90
20081;DHT22;10200;49.232;9.222;2023-02-16T06:07:57;-0.30;99.90
20081;DHT22;10200;49.232;9.222;2023-02-16T06:10:23;-0.40;99.90
20081;DHT22;10200;49.232;9.222;2023-02-16T06:12:48;-0.40;99.90
20081;DHT22;10200;49.232;9.222;2023-02-16T06:15:14;-0.40;99.90
20081;DHT22;10200;49.232;9.222;2023-02-16T06:17:39;-0.40;99.90
20081;DHT22;10200;49.232;9.222;2023-02-16T06:20:06;-0.50;99.90
20081;DHT22;10200;49.232;9.222;2023-02-16T06:22:31;-0.40;99.90
20081;DHT22;10200;49.232;9.222;2023-02-16T06:24:57;-0.50;99.90
20081;DHT22;10200;49.232;9.222;2023-02-16T06:27:22;-0.60;99.90
20081;DHT22;10200;49.232;9.222;2023-02-16T06:29:48;-0.60;99.90
20081;DHT22;10200;49.232;9.222;2023-02-16T06:32:13;-0.60;99.90
20081;DHT22;10200;49.232;9.222;2023-02-16T06:34:39;-0.70;99.90
20081;DHT22;10200;49.232;9.222;2023-02-16T06:37:05;-0.70;99.90
20081;DHT22;10200;49.232;9.222;2023-02-16T06:39:30;-0.60;99.90
20081;DHT22;10200;49.232;9.222;2023-02-16T06:41:56;-0.50;99.90
20081;DHT22;10200;49.232;9.222;2023-02-16T06:44:21;-0.50;99.90
20081;DHT22;10200;49.232;9.222;2023-02-16T06:46:47;-0.50;99.90
20081;DHT22;10200;49.232;9.222;2023-02-16T06:49:15;-0.40;99.90
20081;DHT22;10200;49.232;9.222;2023-02-16T06:51:42;-0.40;99.90
20081;DHT22;10200;49.232;9.222;2023-02-16T06:54:09;-0.40;99.90
20081;DHT22;10200;49.232;9.222;2023-02-16T06:56:34;-0.40;99.90
20081;DHT22;10200;49.232;9.222;2023-02-16T06:59:00;-0.30;99.90
20081;DHT22;10200;49.232;9.222;2023-02-16T07:01:27;-0.40;99.90
20081;DHT22;10200;49.232;9.222;2023-02-16T07:03:53;-0.40;99.90
20081;DHT22;10200;49.232;9.222;2023-02-16T07:06:19;-0.40;99.90
20081;DHT22;10200;49.232;9.222;2023-02-16T07:08:45;-0.40;99.90
20081;DHT22;10200;49.232;9.222;2023-02-16T07:11:11;-0.30;99.90
20081;DHT22;10200;49.232;9.222;2023-02-16T07:13:37;-0.30;99.90
20081;DHT22;10200;49.232;9.222;2023-02-16T07:16:03;-0.20;99.90
20081;DHT22;10200;49.232;9.222;2023-02-16T07:18:29;-0.10;99.90
20081;DHT22;10200;49.232;9.222;2023-02-16T07:20:55;0.00;99.90
20081;DHT22;10200;49.232;9.222;2023-02-16T07:23:21;0.10;99.90
20081;DHT22;10200;49.232;9.222;2023-02-16T07:25:46;0.10;99.90
20081;DHT22;10200;49.232;9.222;2023-02-16T07:28:12;0.20;99.90
20081;DHT22;10200;49.232;9.222;2023-02-16T07:30:38;0.20;99.90
20081;DHT22;10200;49.232;9.222;2023-02-16T07:33:04;0.30;99.90
20081;DHT22;10200;49.232;9.222;2023-02-16T07:35:31;0.40;99.90
20081;DHT22;10200;49.232;9.222;2023-02-16T07:37:57;0.40;99.90
20081;DHT22;10200;49.232;9.222;2023-02-16T07:40:23;0.50;99.90
20081;DHT22;10200;49.232;9.222;2023-02-16T07:42:49;0.60;99.90
20081;DHT22;10200;49.232;9.222;2023-02-16T07:45:14;0.70;99.90
20081;DHT22;10200;49.232;9.222;2023-02-16T07:47:40;0.80;99.90
20081;DHT22;10200;49.232;9.222;2023-02-16T07:50:06;0.90;99.90
20081;DHT22;10200;49.232;9.222;2023-02-16T07:52:33;0.90;99.90
20081;DHT22;10200;49.232;9.222;2023-02-16T07:54:59;1.10;99.90
20081;DHT22;10200;49.232;9.222;2023-02-16T07:57:25;1.20;99.90
20081;DHT22;10200;49.232;9.222;2023-02-16T07:59:52;1.20;99.90
20081;DHT22;10200;49.232;9.222;2023-02-16T08:02:19;1.30;99.90
20081;DHT22;10200;49.232;9.222;2023-02-16T08:04:45;1.50;99.90
20081;DHT22;10200;49.232;9.222;2023-02-16T08:07:15;1.70;99.90
20081;DHT22;10200;49.232;9.222;2023-02-16T08:09:41;2.00;99.90
20081;DHT22;10200;49.232;9.222;2023-02-16T08:12:09;2.50;99.90
20081;DHT22;10200;49.232;9.222;2023-02-16T08:14:35;3.30;99.90
20081;DHT22;10200;49.232;9.222;2023-02-16T08:17:00;4.10;99.90
20081;DHT22;10200;49.232;9.222;2023-02-16T08:19:26;4.80;99.90
20081;DHT22;10200;49.232;9.222;2023-02-16T08:21:54;5.40;99.90
20081;DHT22;10200;49.232;9.222;2023-02-16T08:24:20;5.90;99.90
20081;DHT22;10200;49.232;9.222;2023-02-16T08:26:46;6.30;99.90
20081;DHT22;10200;49.232;9.222;2023-02-16T08:29:14;6.60;98.40
20081;DHT22;10200;49.232;9.222;2023-02-16T08:31:43;7.00;96.90
20081;DHT22;10200;49.232;9.222;2023-02-16T08:34:11;7.40;95.90
20081;DHT22;10200;49.232;9.222;2023-02-16T08:36:39;7.70;92.30
20081;DHT22;10200;49.232;9.222;2023-02-16T08:39:09;8.10;91.50
20081;DHT22;10200;49.232;9.222;2023-02-16T08:41:36;8.20;89.50
20081;DHT22;10200;49.232;9.222;2023-02-16T08:46:33;8.70;84.00
20081;DHT22;10200;49.232;9.222;2023-02-16T08:48:59;8.70;81.80
20081;DHT22;10200;49.232;9.222;2023-02-16T08:51:30;8.70;81.00
20081;DHT22;10200;49.232;9.222;2023-02-16T08:53:57;8.70;80.80
20081;DHT22;10200;49.232;9.222;2023-02-16T08:56:23;8.80;79.90
20081;DHT22;10200;49.232;9.222;2023-02-16T08:58:48;8.90;79.60
20081;DHT22;10200;49.232;9.222;2023-02-16T09:01:14;9.00;79.40
20081;DHT22;10200;49.232;9.222;2023-02-16T09:03:42;9.10;78.70
20081;DHT22;10200;49.232;9.222;2023-02-16T09:06:11;9.10;79.20
20081;DHT22;10200;49.232;9.222;2023-02-16T09:08:37;9.20;76.90
20081;DHT22;10200;49.232;9.222;2023-02-16T09:11:05;9.10;77.80
20081;DHT22;10200;49.232;9.222;2023-02-16T09:13:35;9.00;76.30
20081;DHT22;10200;49.232;9.222;2023-02-16T09:16:09;8.90;76.80
20081;DHT22;10200;49.232;9.222;2023-02-16T09:18:36;8.90;77.00
20081;DHT22;10200;49.232;9.222;2023-02-16T09:21:07;8.80;77.30
20081;DHT22;10200;49.232;9.222;2023-02-16T09:23:36;8.70;77.60
20081;DHT22;10200;49.232;9.222;2023-02-16T09:26:02;8.50;78.10
20081;DHT22;10200;49.232;9.222;2023-02-16T09:28:32;8.40;78.50
20081;DHT22;10200;49.232;9.222;2023-02-16T09:30:58;8.10;78.60
20081;DHT22;10200;49.232;9.222;2023-02-16T09:33:24;8.00;79.90
20081;DHT22;10200;49.232;9.222;2023-02-16T09:35:50;7.80;80.00
20081;DHT22;10200;49.232;9.222;2023-02-16T09:38:16;7.60;81.40
20081;DHT22;10200;49.232;9.222;2023-02-16T09:40:43;7.50;82.00
20081;DHT22;10200;49.232;9.222;2023-02-16T09:43:38;7.30;83.30
20081;DHT22;10200;49.232;9.222;2023-02-16T09:46:11;7.20;84.40
20081;DHT22;10200;49.232;9.222;2023-02-16T09:48:42;7.20;85.00
20081;DHT22;10200;49.232;9.222;2023-02-16T09:51:34;7.20;85.40
20081;DHT22;10200;49.232;9.222;2023-02-16T09:56:55;6.90;86.70
20081;DHT22;10200;49.232;9.222;2023-02-16T09:59:46;6.80;87.00
20081;DHT22;10200;49.232;9.222;2023-02-16T10:02:28;6.80;88.40
20081;DHT22;10200;49.232;9.222;2023-02-16T10:10:41;6.70;90.90
20081;DHT22;10200;49.232;9.222;2023-02-16T10:13:23;6.70;91.00
20081;DHT22;10200;49.232;9.222;2023-02-16T10:15:52;6.70;91.00
20081;DHT22;10200;49.232;9.222;2023-02-16T10:18:29;6.60;91.30
20081;DHT22;10200;49.232;9.222;2023-02-16T10:20:58;6.60;91.90
20081;DHT22;10200;49.232;9.222;2023-02-16T10:23:33;6.60;91.90
20081;DHT22;10200;49.232;9.222;2023-02-16T10:26:04;6.70;92.60
20081;DHT22;10200;49.232;9.222;2023-02-16T10:28:39;6.80;92.80
20081;DHT22;10200;49.232;9.222;2023-02-16T10:36:59;6.90;92.90
20081;DHT22;10200;49.232;9.222;2023-02-16T10:39:37;6.90;93.20
20081;DHT22;10200;49.232;9.222;2023-02-16T10:45:10;7.10;95.10
20081;DHT22;10200;49.232;9.222;2023-02-16T10:47:43;7.30;95.40
20081;DHT22;10200;49.232;9.222;2023-02-16T10:56:00;7.30;95.30
20081;DHT22;10200;49.232;9.222;2023-02-16T10:58:28;7.30;95.80
20081;DHT22;10200;49.232;9.222;2023-02-16T11:01:48;7.40;96.50
20081;DHT22;10200;49.232;9.222;2023-02-16T11:03:50;7.40;96.60
20081;DHT22;10200;49.232;9.222;2023-02-16T11:06:23;7.40;96.90
20081;DHT22;10200;49.232;9.222;2023-02-16T11:08:55;7.50;97.30
20081;DHT22;10200;49.232;9.222;2023-02-16T11:11:29;7.60;97.30
20081;DHT22;10200;49.232;9.222;2023-02-16T11:14:02;7.70;97.20
20081;DHT22;10200;49.232;9.222;2023-02-16T11:16:29;7.80;96.90
20081;DHT22;10200;49.232;9.222;2023-02-16T11:18:58;7.90;96.50
20081;DHT22;10200;49.232;9.222;2023-02-16T11:21:53;7.90;96.30
20081;DHT22;10200;49.232;9.222;2023-02-16T11:24:28;8.00;96.30
20081;DHT22;10200;49.232;9.222;2023-02-16T11:27:00;8.10;96.30
20081;DHT22;10200;49.232;9.222;2023-02-16T11:29:26;8.20;96.00
20081;DHT22;10200;49.232;9.222;2023-02-16T11:31:52;8.30;95.60
20081;DHT22;10200;49.232;9.222;2023-02-16T11:39:58;8.50;93.90
20081;DHT22;10200;49.232;9.222;2023-02-16T11:42:43;8.50;93.40
20081;DHT22;10200;49.232;9.222;2023-02-16T11:47:57;8.60;92.80
20081;DHT22;10200;49.232;9.222;2023-02-16T11:50:29;8.80;92.70
20081;DHT22;10200;49.232;9.222;2023-02-16T11:53:12;8.90;92.30
20081;DHT22;10200;49.232;9.222;2023-02-16T11:55:45;9.00;91.80
20081;DHT22;10200;49.232;9.222;2023-02-16T11:58:25;9.10;91.40
20081;DHT22;10200;49.232;9.222;2023-02-16T12:01:22;9.20;91.50
20081;DHT22;10200;49.232;9.222;2023-02-16T12:11:52;9.50;90.20
20081;DHT22;10200;49.232;9.222;2023-02-16T12:17:26;9.60;90.20
20081;DHT22;10200;49.232;9.222;2023-02-16T12:20:21;9.70;90.20
20081;DHT22;10200;49.232;9.222;2023-02-16T12:22:43;9.80;90.00
20081;DHT22;10200;49.232;9.222;2023-02-16T12:41:49;10.20;87.70
20081;DHT22;10200;49.232;9.222;2023-02-16T12:44:30;10.30;87.40
20081;DHT22;10200;49.232;9.222;2023-02-16T12:47:03;10.30;86.80
20081;DHT22;10200;49.232;9.222;2023-02-16T12:49:51;10.40;86.50
20081;DHT22;10200;49.232;9.222;2023-02-16T12:52:51;10.50;86.00
20081;DHT22;10200;49.232;9.222;2023-02-16T12:56:06;10.60;86.00
20081;DHT22;10200;49.232;9.222;2023-02-16T12:58:33;10.60;85.20
20081;DHT22;10200;49.232;9.222;2023-02-16T13:01:09;10.80;85.30
20081;DHT22;10200;49.232;9.222;2023-02-16T13:03:55;10.80;84.70
20081;DHT22;10200;49.232;9.222;2023-02-16T13:06:42;10.80;84.60
20081;DHT22;10200;49.232;9.222;2023-02-16T13:09:35;10.80;84.80
20081;DHT22;10200;49.232;9.222;2023-02-16T13:12:25;10.80;84.60
20081;DHT22;10200;49.232;9.222;2023-02-16T13:15:12;10.90;84.60
20081;DHT22;10200;49.232;9.222;2023-02-16T13:17:43;10.90;84.20
20081;DHT22;10200;49.232;9.222;2023-02-16T13:20:14;11.00;84.50
20081;DHT22;10200;49.232;9.222;2023-02-16T13:22:44;11.00;84.80
20081;DHT22;10200;49.232;9.222;2023-02-16T13:25:36;11.10;84.40
20081;DHT22;10200;49.232;9.222;2023-02-16T13:30:56;11.20;83.00
20081;DHT22;10200;49.232;9.222;2023-02-16T13:45:20;11.30;83.40
20081;DHT22;10200;49.232;9.222;2023-02-16T13:47:47;11.40;83.20
20081;DHT22;10200;49.232;9.222;2023-02-16T13:50:28;11.40;82.70
20081;DHT22;10200;49.232;9.222;2023-02-16T13:52:56;11.50;82.50
20081;DHT22;10200;49.232;9.222;2023-02-16T13:55:34;11.50;82.20
20081;DHT22;10200;49.232;9.222;2023-02-16T14:05:44;11.60;83.10
20081;DHT22;10200;49.232;9.222;2023-02-16T14:08:20;11.70;82.90
20081;DHT22;10200;49.232;9.222;2023-02-16T14:13:21;11.90;82.80
20081;DHT22;10200;49.232;9.222;2023-02-16T14:15:50;12.00;82.20
20081;DHT22;10200;49.232;9.222;2023-02-16T14:24:06;12.00;81.20
20081;DHT22;10200;49.232;9.222;2023-02-16T14:26:50;12.00;81.50
20081;DHT22;10200;49.232;9.222;2023-02-16T14:29:20;12.10;81.60
20081;DHT22;10200;49.232;9.222;2023-02-16T14:34:33;12.30;78.80
20081;DHT22;10200;49.232;9.222;2023-02-16T14:37:26;12.30;77.60
20081;DHT22;10200;49.232;9.222;2023-02-16T14:39:54;12.30;76.90
20081;DHT22;10200;49.232;9.222;2023-02-16T14:42:50;12.30;76.70
20081;DHT22;10200;49.232;9.222;2023-02-16T14:57:15;12.30;75.70
20081;DHT22;10200;49.232;9.222;2023-02-16T14:59:56;12.30;75.70
20081;DHT22;10200;49.232;9.222;2023-02-16T15:02:31;12.30;75.10
20081;DHT22;10200;49.232;9.222;2023-02-16T15:05:12;12.40;75.20
20081;DHT22;10200;49.232;9.222;2023-02-16T15:07:38;12.40;75.20
20081;DHT22;10200;49.232;9.222;2023-02-16T15:10:04;12.40;74.60
20081;DHT22;10200;49.232;9.222;2023-02-16T15:12:30;12.40;74.30
20081;DHT22;10200;49.232;9.222;2023-02-16T15:15:00;12.40;74.20
20081;DHT22;10200;49.232;9.222;2023-02-16T15:17:33;12.40;74.30
20081;DHT22;10200;49.232;9.222;2023-02-16T15:22:50;12.40;74.10
20081;DHT22;10200;49.232;9.222;2023-02-16T15:25:37;12.40;73.90
20081;DHT22;10200;49.232;9.222;2023-02-16T15:30:58;12.30;73.90
20081;DHT22;10200;49.232;9.222;2023-02-16T15:33:27;12.20;74.10
20081;DHT22;10200;49.232;9.222;2023-02-16T15:36:06;12.20;74.60
20081;DHT22;10200;49.232;9.222;2023-02-16T15:38:37;12.10;74.60
20081;DHT22;10200;49.232;9.222;2023-02-16T15:41:10;12.10;74.70
20081;DHT22;10200;49.232;9.222;2023-02-16T15:46:22;12.00;75.10
20081;DHT22;10200;49.232;9.222;2023-02-16T15:48:48;12.00;75.10
20081;DHT22;10200;49.232;9.222;2023-02-16T15:51:30;11.90;75.30
20081;DHT22;10200;49.232;9.222;2023-02-16T15:56:44;11.70;75.90
20081;DHT22;10200;49.232;9.222;2023-02-16T16:02:03;11.70;76.10
20081;DHT22;10200;49.232;9.222;2023-02-16T16:04:38;11.70;76.30
20081;DHT22;10200;49.232;9.222;2023-02-16T16:07:11;11.60;76.40
20081;DHT22;10200;49.232;9.222;2023-02-16T16:09:37;11.60;76.60
20081;DHT22;10200;49.232;9.222;2023-02-16T16:12:06;11.50;76.90
20081;DHT22;10200;49.232;9.222;2023-02-16T16:14:35;11.50;77.20
20081;DHT22;10200;49.232;9.222;2023-02-16T16:17:03;11.40;77.40
20081;DHT22;10200;49.232;9.222;2023-02-16T16:19:34;11.40;77.60
20081;DHT22;10200;49.232;9.222;2023-02-16T16:22:00;11.30;77.90
20081;DHT22;10200;49.232;9.222;2023-02-16T16:24:37;11.30;78.20
20081;DHT22;10200;49.232;9.222;2023-02-16T16:27:07;11.30;78.50
20081;DHT22;10200;49.232;9.222;2023-02-16T16:29:44;11.30;78.60
20081;DHT22;10200;49.232;9.222;2023-02-16T16:32:22;11.30;79.00
20081;DHT22;10200;49.232;9.222;2023-02-16T16:34:52;11.20;79.00
20081;DHT22;10200;49.232;9.222;2023-02-16T16:37:27;11.20;79.00
20081;DHT22;10200;49.232;9.222;2023-02-16T16:40:19;11.20;79.30
20081;DHT22;10200;49.232;9.222;2023-02-16T16:43:07;11.20;79.60
20081;DHT22;10200;49.232;9.222;2023-02-16T16:45:39;11.10;80.00
20081;DHT22;10200;49.232;9.222;2023-02-16T16:50:48;11.00;80.30
20081;DHT22;10200;49.232;9.222;2023-02-16T16:55:58;11.00;80.40
20081;DHT22;10200;49.232;9.222;2023-02-16T16:58:23;11.00;80.70
20081;DHT22;10200;49.232;9.222;2023-02-16T17:00:49;10.90;80.90
20081;DHT22;10200;49.232;9.222;2023-02-16T17:03:16;10.90;81.00
20081;DHT22;10200;49.232;9.222;2023-02-16T17:05:43;10.80;81.20
20081;DHT22;10200;49.232;9.222;2023-02-16T17:08:09;10.90;81.40
20081;DHT22;10200;49.232;9.222;2023-02-16T17:10:38;10.80;81.20
20081;DHT22;10200;49.232;9.222;2023-02-16T17:13:04;10.80;81.50
20081;DHT22;10200;49.232;9.222;2023-02-16T17:15:53;10.80;81.70
20081;DHT22;10200;49.232;9.222;2023-02-16T17:18:21;10.70;81.70
20081;DHT22;10200;49.232;9.222;2023-02-16T17:20:47;10.70;81.80
20081;DHT22;10200;49.232;9.222;2023-02-16T17:23:15;10.70;81.90
20081;DHT22;10200;49.232;9.222;2023-02-16T17:25:41;10.70;82.30
20081;DHT22;10200;49.232;9.222;2023-02-16T17:28:09;10.60;82.50
20081;DHT22;10200;49.232;9.222;2023-02-16T17:30:35;10.60;82.70
20081;DHT22;10200;49.232;9.222;2023-02-16T17:33:02;10.60;83.00
20081;DHT22;10200;49.232;9.222;2023-02-16T17:35:29;10.50;83.30
20081;DHT22;10200;49.232;9.222;2023-02-16T17:37:55;10.50;83.70
20081;DHT22;10200;49.232;9.222;2023-02-16T17:40:22;10.40;83.80
20081;DHT22;10200;49.232;9.222;2023-02-16T17:42:48;10.40;84.20
20081;DHT22;10200;49.232;9.222;2023-02-16T17:45:16;10.40;84.50
20081;DHT22;10200;49.232;9.222;2023-02-16T17:47:43;10.30;84.60
20081;DHT22;10200;49.232;9.222;2023-02-16T17:50:15;10.30;84.90
20081;DHT22;10200;49.232;9.222;2023-02-16T17:52:42;10.30;85.30
20081;DHT22;10200;49.232;9.222;2023-02-16T17:55:09;10.30;85.70
20081;DHT22;10200;49.232;9.222;2023-02-16T17:57:35;10.20;86.20
20081;DHT22;10200;49.232;9.222;2023-02-16T18:00:02;10.20;86.30
20081;DHT22;10200;49.232;9.222;2023-02-16T18:02:29;10.20;86.90
20081;DHT22;10200;49.232;9.222;2023-02-16T18:04:54;10.10;87.60
20081;DHT22;10200;49.232;9.222;2023-02-16T18:07:20;10.10;88.30
20081;DHT22;10200;49.232;9.222;2023-02-16T18:09:47;10.10;89.60
20081;DHT22;10200;49.232;9.222;2023-02-16T18:12:13;10.00;89.60
20081;DHT22;10200;49.232;9.222;2023-02-16T18:14:39;10.00;90.10
20081;DHT22;10200;49.232;9.222;2023-02-16T18:17:04;10.10;90.60
20081;DHT22;10200;49.232;9.222;2023-02-16T18:19:31;10.00;91.20
20081;DHT22;10200;49.232;9.222;2023-02-16T18:21:57;9.90;91.70
20081;DHT22;10200;49.232;9.222;2023-02-16T18:24:23;9.90;92.50
20081;DHT22;10200;49.232;9.222;2023-02-16T18:26:48;9.80;93.60
20081;DHT22;10200;49.232;9.222;2023-02-16T18:29:15;9.80;94.80
20081;DHT22;10200;49.232;9.222;2023-02-16T18:31:41;9.80;95.70
20081;DHT22;10200;49.232;9.222;2023-02-16T18:34:07;9.80;96.50
20081;DHT22;10200;49.232;9.222;2023-02-16T18:36:37;9.70;97.40
20081;DHT22;10200;49.232;9.222;2023-02-16T18:39:03;9.70;98.10
20081;DHT22;10200;49.232;9.222;2023-02-16T18:41:29;9.60;98.90